This is the latest recevied weather packets stored in our database for station/object KD7ECD. If no packets are shown the sender has not sent any weather packets the latest 10 day(s).
| Time | Temp. | Humidity | Pressure | Rain* | Wind** | Luminosity | Snow |
|---|---|---|---|---|---|---|---|
| 1777615852 | 9.44° C | 93% | 1017 hPa | 0 mm | - | 0 W/m² | - |
| 1777615250 | 9.44° C | 92% | 1017 hPa | 0 mm | - | 0 W/m² | - |
| 1777614647 | 9.44° C | 92% | 1017.1 hPa | 0 mm | - | 0 W/m² | - |
| 1777614044 | 9.44° C | 92% | 1017.2 hPa | 0 mm | - | 0 W/m² | - |
| 1777613443 | 10° C | 91% | 1017 hPa | 0 mm | - | 0 W/m² | - |
| 1777612841 | 11.11° C | 91% | 1016.9 hPa | 0 mm | - | 0 W/m² | - |
| 1777612239 | 11.11° C | 91% | 1016.7 hPa | 0 mm | - | 0 W/m² | - |
| 1777611636 | 11.67° C | 90% | 1016.5 hPa | 0 mm | - | 0 W/m² | - |
| 1777611036 | 11.67° C | 90% | 1016.8 hPa | 0 mm | - | 0 W/m² | - |
| 1777610436 | 11.67° C | 89% | 1016.6 hPa | 0 mm | - | 0 W/m² | - |
| 1777609835 | 12.22° C | 88% | 1016.4 hPa | 0 mm | - | 0 W/m² | - |
| 1777609235 | 12.22° C | 87% | 1016.5 hPa | 0 mm | - | 0 W/m² | - |
| 1777608635 | 12.22° C | 87% | 1016.4 hPa | 0 mm | - | 0 W/m² | - |
| 1777608030 | 12.78° C | 85% | 1016 hPa | 0 mm | - | 0 W/m² | - |
| 1777607428 | 13.33° C | 82% | 1016 hPa | 0 mm | - | 0 W/m² | - |
| 1777606826 | 13.89° C | 80% | 1016.1 hPa | 0 mm | - | 0 W/m² | - |
| 1777606222 | 13.89° C | 79% | 1016.1 hPa | 0 mm | - | 0 W/m² | - |
| 1777605620 | 14.44° C | 77% | 1015.9 hPa | 0 mm | - | 0 W/m² | - |
| 1777605016 | 15° C | 74% | 1016 hPa | 0 mm | - | 0 W/m² | - |
| 1777604414 | 15.56° C | 72% | 1015.8 hPa | 0 mm | - | 1 W/m² | - |
| 1777603811 | 16.11° C | 69% | 1015.5 hPa | 0 mm | - | 6 W/m² | - |
| 1777603209 | 17.22° C | 65% | 1015.3 hPa | 0 mm | - | 13 W/m² | - |
| 1777602606 | 18.33° C | 60% | 1015.4 hPa | 0 mm | - | 21 W/m² | - |
| 1777602003 | 18.89° C | 57% | 1015.3 hPa | 0 mm | - | 26 W/m² | - |
| 1777601399 | 20.56° C | 53% | 1015.1 hPa | 0 mm | - | 59 W/m² | - |
* Rain latest hour (hover to see other rain measurements)
** Current wind speed in m/s (hover to see current wind gust speed)